In Rescue
 
Open Full Screen Window  High Contrast Mode
Wind Gusting 00 knots
04
June 22, 2024 8:38 PM EDT
Weather Information
Wind Direction
  210 °
Wind Speed
  04 kt (5 mph)
Wind Gust
  00 kt (0 mph)
Altimeter
29.78 in
Visibility
10 SM
Temperature
30° C
86° F
Dewpoint
16° C
61° F
Humidity
43%
Sky Condition
Clear
VFR

METAR KTTF 230038Z AUTO 21004KT 10SM CLR 30/16 A2978 RMK AO2 T03010161

FAA Disclaimer: The data displayed is for advisory purposes only and is not to be used for flight planning or operations.